createdAt,value
2022-07-28T00:03:00.605Z,2.80
2022-07-28T00:08:10.414Z,3.47
2022-07-28T00:13:18.307Z,3.07
2022-07-28T00:18:26.469Z,3.30
2022-07-28T00:23:39.079Z,3.20
2022-07-28T00:28:43.899Z,2.93
2022-07-28T00:33:51.816Z,2.50
2022-07-28T00:38:59.726Z,2.33
2022-07-28T00:44:08.568Z,2.97
2022-07-28T00:49:16.577Z,2.30
2022-07-28T00:54:24.486Z,2.67
2022-07-28T00:59:33.033Z,2.50
2022-07-28T01:04:42.237Z,2.60
2022-07-28T01:09:53.199Z,2.43
2022-07-28T01:15:04.237Z,2.47
2022-07-28T01:20:14.670Z,2.63
2022-07-28T01:25:25.706Z,3.03
2022-07-28T01:30:36.843Z,3.00
2022-07-28T01:35:47.430Z,3.03
2022-07-28T01:40:55.616Z,2.87
2022-07-28T01:46:03.971Z,2.47
2022-07-28T01:51:12.007Z,3.00
2022-07-28T01:56:20.317Z,2.23
2022-07-28T02:01:28.289Z,2.20
2022-07-28T02:06:36.357Z,1.90
2022-07-28T02:11:44.787Z,1.93
2022-07-28T02:16:56.075Z,2.03
2022-07-28T02:22:05.194Z,1.80
2022-07-28T02:27:16.125Z,2.83
2022-07-28T02:32:28.738Z,2.50
2022-07-28T02:37:39.316Z,2.90
2022-07-28T02:42:48.081Z,2.00
2022-07-28T02:47:58.025Z,2.60
2022-07-28T02:53:15.103Z,2.13
2022-07-28T02:58:16.530Z,2.33
2022-07-28T03:03:28.436Z,2.13
2022-07-28T03:08:36.323Z,1.80
2022-07-28T03:13:44.274Z,2.60
2022-07-28T03:18:52.241Z,2.90
2022-07-28T03:24:00.114Z,3.07
2022-07-28T03:29:08.806Z,2.70
2022-07-28T03:34:17.254Z,2.50
2022-07-28T03:39:25.730Z,2.40
2022-07-28T03:44:35.308Z,2.40
2022-07-28T03:49:44.824Z,3.03
2022-07-28T03:54:53.216Z,2.90
2022-07-28T04:00:02.888Z,3.00
2022-07-28T04:05:13.459Z,4.00
2022-07-28T04:10:21.323Z,3.63
2022-07-28T04:15:31.083Z,3.57
2022-07-28T04:20:38.912Z,4.63
2022-07-28T04:25:46.786Z,5.40
2022-07-28T04:30:54.682Z,5.17
2022-07-28T04:36:02.747Z,4.47
2022-07-28T04:41:11.265Z,4.30
2022-07-28T04:46:19.266Z,4.50
2022-07-28T04:51:27.121Z,4.13
2022-07-28T04:56:34.985Z,6.30
2022-07-28T05:01:43.827Z,6.57
2022-07-28T05:06:51.636Z,7.63
2022-07-28T05:11:59.737Z,6.93
2022-07-28T05:17:07.671Z,6.53
2022-07-28T05:22:17.741Z,6.50
2022-07-28T05:27:25.635Z,6.80
2022-07-28T05:32:33.479Z,7.07
2022-07-28T05:37:41.466Z,5.53
2022-07-28T05:42:49.312Z,6.27
2022-07-28T05:47:57.201Z,5.77
2022-07-28T05:53:05.235Z,5.33
2022-07-28T05:58:13.530Z,5.00
2022-07-28T06:03:21.463Z,4.67
2022-07-28T06:08:30.057Z,4.63
2022-07-28T06:13:38.516Z,3.67
2022-07-28T06:18:46.510Z,2.50
2022-07-28T06:23:54.357Z,2.97
2022-07-28T06:29:02.234Z,2.60
2022-07-28T06:34:12.418Z,2.30
2022-07-28T06:39:20.701Z,2.20
2022-07-28T06:44:55.027Z,1.83
2022-07-28T06:49:39.353Z,2.10
2022-07-28T06:54:49.017Z,1.97
2022-07-28T06:59:57.105Z,1.83
2022-07-28T07:05:05.130Z,1.43
2022-07-28T07:10:13.086Z,1.27
2022-07-28T07:15:20.920Z,1.30
2022-07-28T07:20:28.721Z,1.30
2022-07-28T07:25:36.700Z,1.30
2022-07-28T07:30:44.893Z,1.00
2022-07-28T07:35:52.892Z,1.20
2022-07-28T07:41:01.178Z,3.57
2022-07-28T07:46:09.202Z,1.17
2022-07-28T07:51:17.325Z,1.40
2022-07-28T07:56:25.252Z,0.97
2022-07-28T08:01:36.148Z,1.50
2022-07-28T08:06:51.597Z,1.10
2022-07-28T08:12:12.023Z,0.90
2022-07-28T08:17:23.611Z,0.90
2022-07-28T08:22:29.662Z,0.80
2022-07-28T08:27:37.604Z,1.00
2022-07-28T08:32:45.417Z,0.90
2022-07-28T08:37:55.056Z,0.80
2022-07-28T08:43:06.084Z,0.70
2022-07-28T08:48:13.947Z,1.00
2022-07-28T08:53:21.906Z,1.17
2022-07-28T08:58:29.887Z,0.80
2022-07-28T09:03:39.533Z,0.70
2022-07-28T09:08:47.540Z,1.20
2022-07-28T09:13:55.400Z,0.80
2022-07-28T09:19:03.217Z,0.90
2022-07-28T09:24:11.848Z,0.83
2022-07-28T09:29:23.415Z,0.90
2022-07-28T09:34:34.482Z,0.87
2022-07-28T09:39:42.331Z,0.90
2022-07-28T09:45:20.313Z,1.00
2022-07-28T09:50:03.465Z,0.80
2022-07-28T09:55:12.395Z,0.93
2022-07-28T10:00:23.374Z,0.90
2022-07-28T10:05:36.111Z,0.77
2022-07-28T10:10:43.939Z,0.73
2022-07-28T10:15:56.669Z,1.73
2022-07-28T10:21:05.816Z,0.87
2022-07-28T10:26:13.734Z,0.70
2022-07-28T10:31:24.816Z,0.83
2022-07-28T10:36:33.782Z,1.10
2022-07-28T10:41:43.025Z,0.80
2022-07-28T10:46:51.678Z,0.87
2022-07-28T10:52:04.920Z,1.20
2022-07-28T10:57:09.358Z,0.80
2022-07-28T11:02:20.497Z,0.90
2022-07-28T11:07:34.002Z,0.80
2022-07-28T11:12:45.088Z,1.00
2022-07-28T11:17:56.319Z,1.00
2022-07-28T11:23:09.347Z,1.10
2022-07-28T11:28:17.220Z,0.80
2022-07-28T11:33:25.591Z,1.20
2022-07-28T11:38:33.434Z,1.00
2022-07-28T11:43:41.559Z,0.90
2022-07-28T11:48:52.623Z,1.17
2022-07-28T11:54:00.522Z,0.97
2022-07-28T11:59:10.525Z,0.70
2022-07-28T12:04:19.105Z,0.60
2022-07-28T12:09:37.192Z,0.90
2022-07-28T12:14:41.512Z,3.13
2022-07-28T12:19:49.675Z,0.80
2022-07-28T12:24:58.822Z,0.80
2022-07-28T12:30:07.643Z,1.00
2022-07-28T12:35:17.613Z,0.80
2022-07-28T12:40:27.569Z,0.67
2022-07-28T12:45:36.720Z,0.90
2022-07-28T12:50:44.579Z,1.07
2022-07-28T12:55:55.687Z,0.70
2022-07-28T13:01:05.176Z,0.80
2022-07-28T13:06:14.760Z,0.87
2022-07-28T13:11:43.173Z,1.00
2022-07-28T13:16:36.789Z,0.90
2022-07-28T13:21:57.166Z,1.10
2022-07-28T13:26:56.529Z,1.67
2022-07-28T13:32:04.787Z,1.00
2022-07-28T13:37:13.214Z,0.90
2022-07-28T13:42:21.142Z,0.83
2022-07-28T13:47:35.782Z,0.83
2022-07-28T13:52:40.256Z,0.60
2022-07-28T13:57:49.743Z,0.77
2022-07-28T14:02:57.623Z,0.70
2022-07-28T14:08:06.103Z,0.93
2022-07-28T14:13:13.977Z,0.87
2022-07-28T14:18:21.801Z,0.73
2022-07-28T14:23:31.666Z,0.73
2022-07-28T14:28:39.517Z,0.93
2022-07-28T14:33:52.235Z,1.10
2022-07-28T14:38:57.160Z,0.70
2022-07-28T14:44:05.283Z,0.73
2022-07-28T14:49:14.314Z,0.80
2022-07-28T14:54:22.385Z,0.80
2022-07-28T14:59:30.526Z,2.83
2022-07-28T15:04:38.464Z,0.80
2022-07-28T15:09:50.428Z,1.83
2022-07-28T15:14:56.656Z,1.10
2022-07-28T15:20:06.703Z,0.80
2022-07-28T15:25:15.342Z,0.90
2022-07-28T15:30:23.264Z,0.80
2022-07-28T15:35:59.210Z,0.70
2022-07-28T15:40:41.231Z,0.70
2022-07-28T15:45:49.079Z,1.20
2022-07-28T15:50:57.980Z,0.80
2022-07-28T15:56:08.507Z,0.97
2022-07-28T16:01:17.918Z,1.70
2022-07-28T16:06:26.068Z,1.00
2022-07-28T16:11:33.921Z,0.73
2022-07-28T16:16:41.787Z,0.90
2022-07-28T16:21:50.070Z,0.90
2022-07-28T16:26:58.024Z,0.83
2022-07-28T16:32:06.356Z,0.93
2022-07-28T16:37:19.215Z,0.60
2022-07-28T16:42:24.007Z,0.80
2022-07-28T16:47:32.081Z,0.90
2022-07-28T16:52:41.056Z,0.83
2022-07-28T16:57:50.184Z,0.73
2022-07-28T17:02:58.060Z,1.37
2022-07-28T17:08:06.507Z,9.77
2022-07-28T17:13:15.769Z,0.77
2022-07-28T17:18:23.648Z,1.20
2022-07-28T17:23:31.947Z,1.00
2022-07-28T17:28:41.573Z,1.00
2022-07-28T17:33:49.591Z,0.90
2022-07-28T17:38:57.598Z,1.13
2022-07-28T17:44:06.087Z,0.93
2022-07-28T17:49:14.498Z,0.70
2022-07-28T17:54:24.041Z,0.67
2022-07-28T17:59:51.467Z,0.90
2022-07-28T18:04:43.818Z,0.90
2022-07-28T18:09:51.883Z,0.77
2022-07-28T18:14:59.909Z,2.17
2022-07-28T18:20:08.976Z,2.80
2022-07-28T18:25:16.940Z,1.60
2022-07-28T18:30:25.313Z,1.53
2022-07-28T18:35:33.474Z,1.97
2022-07-28T18:40:42.383Z,3.30
2022-07-28T18:45:50.876Z,1.67
2022-07-28T18:50:59.138Z,1.57
2022-07-28T18:56:07.211Z,1.40
2022-07-28T19:01:15.258Z,1.47
2022-07-28T19:06:23.535Z,1.30
2022-07-28T19:11:32.507Z,1.37
2022-07-28T19:16:42.688Z,1.70
2022-07-28T19:21:58.631Z,1.60
2022-07-28T19:27:07.436Z,1.50
2022-07-28T19:32:15.450Z,1.60
2022-07-28T19:37:23.477Z,1.70
2022-07-28T19:42:32.144Z,2.13
2022-07-28T19:47:40.345Z,1.53
2022-07-28T19:52:48.654Z,1.87
2022-07-28T19:57:59.566Z,1.97
2022-07-28T20:03:59.940Z,1.80
2022-07-28T20:08:19.502Z,2.20
2022-07-28T20:13:30.457Z,2.07
2022-07-28T20:18:39.824Z,2.07
2022-07-28T20:23:47.849Z,1.90
2022-07-28T20:28:57.981Z,1.80
2022-07-28T20:34:07.073Z,1.73
2022-07-28T20:39:42.573Z,1.73
2022-07-28T20:44:29.448Z,2.37
2022-07-28T20:49:34.525Z,1.87
2022-07-28T20:54:42.550Z,2.07
2022-07-28T20:59:52.403Z,1.83
2022-07-28T21:05:00.416Z,2.00
2022-07-28T21:10:09.034Z,2.80
2022-07-28T21:15:17.405Z,2.60
2022-07-28T21:20:25.620Z,2.27
2022-07-28T21:25:33.618Z,2.50
2022-07-28T21:30:41.541Z,2.60
2022-07-28T21:35:49.466Z,2.20
2022-07-28T21:40:57.534Z,2.13
2022-07-28T21:46:05.544Z,3.10
2022-07-28T21:51:19.434Z,2.20
2022-07-28T21:56:26.814Z,2.60
2022-07-28T22:01:34.913Z,2.37
2022-07-28T22:06:46.281Z,1.90
2022-07-28T22:11:52.529Z,2.40
2022-07-28T22:17:01.945Z,2.50
2022-07-28T22:22:10.246Z,2.13
2022-07-28T22:27:18.375Z,2.27
2022-07-28T22:32:29.099Z,1.97
2022-07-28T22:37:40.877Z,1.93
2022-07-28T22:42:49.483Z,2.70
2022-07-28T22:47:57.334Z,2.30
2022-07-28T22:53:05.251Z,2.43
2022-07-28T22:58:13.251Z,1.77
2022-07-28T23:03:21.230Z,2.00
2022-07-28T23:08:29.299Z,2.03
2022-07-28T23:13:37.314Z,1.90
2022-07-28T23:18:45.727Z,2.10
2022-07-28T23:23:53.591Z,2.23
2022-07-28T23:29:01.669Z,2.27
2022-07-28T23:34:09.702Z,2.30
2022-07-28T23:39:17.874Z,2.17
2022-07-28T23:44:25.749Z,2.10
2022-07-28T23:49:33.651Z,2.07
2022-07-28T23:54:42.068Z,1.80
2022-07-28T23:59:49.969Z,2.20
